createdAt,value
2023-02-27T00:01:00.212Z,102207.38
2023-02-27T00:03:28.568Z,102204.91
2023-02-27T00:05:57.281Z,102210.09
2023-02-27T00:08:25.509Z,102210.00
2023-02-27T00:10:53.155Z,102204.91
2023-02-27T00:13:20.950Z,102211.03
2023-02-27T00:15:51.116Z,102211.88
2023-02-27T00:18:18.881Z,102211.03
2023-02-27T00:20:46.593Z,102209.34
2023-02-27T00:23:15.759Z,102205.94
2023-02-27T00:25:43.504Z,102207.78
2023-02-27T00:28:11.216Z,102200.84
2023-02-27T00:30:38.983Z,102202.44
2023-02-27T00:33:08.974Z,102199.16
2023-02-27T00:35:36.758Z,102193.91
2023-02-27T00:38:04.547Z,102199.16
2023-02-27T00:40:32.290Z,102196.63
2023-02-27T00:43:00.179Z,102194.06
2023-02-27T00:45:27.857Z,102192.31
2023-02-27T00:47:55.554Z,102193.22
2023-02-27T00:50:24.604Z,102185.38
2023-02-27T00:52:52.263Z,102188.00
2023-02-27T00:55:19.969Z,102182.78
2023-02-27T00:57:47.701Z,102192.31
2023-02-27T01:00:15.925Z,102181.06
2023-02-27T01:02:43.654Z,102181.03
2023-02-27T01:05:11.500Z,102188.78
2023-02-27T01:07:40.596Z,102188.78
2023-02-27T01:10:10.006Z,102178.34
2023-02-27T01:12:37.741Z,102185.22
2023-02-27T01:15:06.296Z,102186.06
2023-02-27T01:17:34.273Z,102186.84
2023-02-27T01:20:01.923Z,102178.13
2023-02-27T01:22:29.539Z,102185.88
2023-02-27T01:24:58.599Z,102183.25
2023-02-27T01:27:26.354Z,102184.94
2023-02-27T01:29:53.987Z,102171.00
2023-02-27T01:32:21.821Z,102172.66
2023-02-27T01:34:49.594Z,102178.69
2023-02-27T01:37:17.217Z,102170.78
2023-02-27T01:39:45.100Z,102170.75
2023-02-27T01:42:20.608Z,102171.56
2023-02-27T01:45:19.819Z,102177.59
2023-02-27T01:47:51.275Z,102173.25
2023-02-27T01:50:19.844Z,102175.81
2023-02-27T01:52:52.805Z,102167.94
2023-02-27T01:55:20.803Z,102173.03
2023-02-27T01:57:50.673Z,102163.16
2023-02-27T02:00:19.060Z,102166.53
2023-02-27T02:02:53.124Z,102163.16
2023-02-27T02:05:22.216Z,102168.41
2023-02-27T02:07:50.405Z,102171.94
2023-02-27T02:10:19.456Z,102176.25
2023-02-27T02:12:49.747Z,102171.13
2023-02-27T02:15:17.960Z,102181.56
2023-02-27T02:18:01.877Z,102186.75
2023-02-27T02:20:53.688Z,102180.59
2023-02-27T02:23:57.945Z,102184.97
2023-02-27T02:26:33.571Z,102185.06
2023-02-27T02:29:40.164Z,102186.00
2023-02-27T02:32:48.540Z,102185.06
2023-02-27T02:35:45.917Z,102185.94
2023-02-27T02:39:01.304Z,102185.88
2023-02-27T02:41:38.305Z,102184.19
2023-02-27T02:44:09.569Z,102184.22
2023-02-27T02:46:43.289Z,102189.31
2023-02-27T02:49:15.601Z,102189.25
2023-02-27T02:51:49.716Z,102183.84
2023-02-27T02:54:21.364Z,102184.72
2023-02-27T02:56:52.523Z,102181.22
2023-02-27T02:59:25.965Z,102181.09
2023-02-27T03:01:55.092Z,102189.81
2023-02-27T03:04:27.920Z,102191.47
2023-02-27T03:06:59.317Z,102194.16
2023-02-27T03:09:32.649Z,102195.16
2023-02-27T03:12:04.663Z,102183.75
2023-02-27T03:14:35.862Z,102192.41
2023-02-27T03:17:08.006Z,102185.44
2023-02-27T03:19:40.452Z,102191.59
2023-02-27T03:22:11.191Z,102188.78
2023-02-27T03:24:41.383Z,102192.53
2023-02-27T03:27:11.036Z,102189.03
2023-02-27T03:29:43.234Z,102198.53
2023-02-27T03:32:15.665Z,102204.88
2023-02-27T03:34:44.377Z,102197.69
2023-02-27T03:37:21.021Z,102192.25
2023-02-27T03:39:50.380Z,102195.03
2023-02-27T03:42:25.798Z,102199.38
2023-02-27T03:44:58.026Z,102195.81
2023-02-27T03:47:25.719Z,102196.72
2023-02-27T03:49:53.601Z,102194.06
2023-02-27T03:52:22.458Z,102203.69
2023-02-27T03:54:54.354Z,102203.72
2023-02-27T03:57:23.571Z,102195.06
2023-02-27T03:59:53.338Z,102203.66
2023-02-27T04:02:22.361Z,102201.88
2023-02-27T04:04:50.024Z,102206.16
2023-02-27T04:07:24.650Z,102205.22
2023-02-27T04:10:14.985Z,102198.25
2023-02-27T04:13:06.825Z,102210.44
2023-02-27T04:15:42.263Z,102218.31
2023-02-27T04:18:18.801Z,102219.06
2023-02-27T04:20:49.835Z,102210.19
2023-02-27T04:23:21.157Z,102210.19
2023-02-27T04:25:55.248Z,102215.34
2023-02-27T04:28:27.130Z,102217.91
2023-02-27T04:31:05.650Z,102227.31
2023-02-27T04:33:41.856Z,102222.91
2023-02-27T04:36:13.249Z,102224.50
2023-02-27T04:38:45.410Z,102224.41
2023-02-27T04:41:15.322Z,102219.97
2023-02-27T04:47:09.867Z,102228.41
2023-02-27T04:49:39.528Z,102233.50
2023-02-27T04:52:10.816Z,102239.53
2023-02-27T04:54:42.022Z,102240.31
2023-02-27T04:57:12.796Z,102241.13
2023-02-27T04:59:45.627Z,102246.34
2023-02-27T05:02:16.017Z,102248.97
2023-02-27T05:04:45.027Z,102253.25
2023-02-27T05:07:15.848Z,102253.16
2023-02-27T05:09:45.814Z,102253.97
2023-02-27T05:12:18.076Z,102255.59
2023-02-27T05:14:51.008Z,102248.63
2023-02-27T05:17:20.932Z,102258.94
2023-02-27T05:19:48.757Z,102261.56
2023-02-27T05:22:24.388Z,102261.56
2023-02-27T05:24:55.766Z,102257.22
2023-02-27T05:27:28.346Z,102260.56
2023-02-27T05:30:00.290Z,102261.38
2023-02-27T05:32:35.122Z,102271.88
2023-02-27T05:35:08.448Z,102266.53
2023-02-27T05:37:39.730Z,102276.22
2023-02-27T05:40:10.016Z,102270.78
2023-02-27T05:42:40.959Z,102276.94
2023-02-27T05:45:12.374Z,102276.97
2023-02-27T05:47:42.819Z,102283.00
2023-02-27T05:50:12.200Z,102289.19
2023-02-27T05:52:41.601Z,102298.78
2023-02-27T05:55:13.824Z,102296.28
2023-02-27T05:57:45.472Z,102299.97
2023-02-27T06:00:18.088Z,102301.06
2023-02-27T06:02:46.182Z,102299.13
2023-02-27T06:05:15.947Z,102306.44
2023-02-27T06:07:43.610Z,102309.19
2023-02-27T06:10:13.839Z,102310.03
2023-02-27T06:12:42.312Z,102313.41
2023-02-27T06:15:10.956Z,102310.78
2023-02-27T06:17:40.238Z,102322.81
2023-02-27T06:20:09.213Z,102316.75
2023-02-27T06:22:36.997Z,102321.97
2023-02-27T06:25:04.995Z,102322.94
2023-02-27T06:27:32.725Z,102319.44
2023-02-27T06:30:00.368Z,102327.38
2023-02-27T06:32:28.122Z,102324.06
2023-02-27T06:34:57.240Z,102322.31
2023-02-27T06:37:25.205Z,102318.84
2023-02-27T06:39:53.023Z,102321.47
2023-02-27T06:42:20.694Z,102315.38
2023-02-27T06:44:48.351Z,102315.38
2023-02-27T06:47:16.074Z,102318.78
2023-02-27T06:49:43.799Z,102323.97
2023-02-27T06:52:12.877Z,102324.94
2023-02-27T06:54:40.565Z,102326.84
2023-02-27T06:57:08.201Z,102324.09
2023-02-27T06:59:35.858Z,102332.09
2023-02-27T07:02:03.551Z,102332.19
2023-02-27T07:04:31.261Z,102341.78
2023-02-27T07:07:35.710Z,102336.66
2023-02-27T07:09:49.192Z,102335.09
2023-02-27T07:12:16.850Z,102340.34
2023-02-27T07:14:44.540Z,102337.94
2023-02-27T07:17:12.199Z,102336.06
2023-02-27T07:19:39.846Z,102329.09
2023-02-27T07:22:09.280Z,102342.50
2023-02-27T07:24:37.378Z,102344.41
2023-02-27T07:27:06.388Z,102344.50
2023-02-27T07:29:36.003Z,102348.94
2023-02-27T07:32:03.808Z,102347.25
2023-02-27T07:34:31.494Z,102351.53
2023-02-27T07:36:59.152Z,102354.34
2023-02-27T07:39:26.869Z,102359.66
2023-02-27T07:41:54.749Z,102361.41
2023-02-27T07:44:23.842Z,102366.78
2023-02-27T07:46:51.596Z,102371.19
2023-02-27T07:49:19.357Z,102364.13
2023-02-27T07:51:46.993Z,102366.88
2023-02-27T07:54:14.712Z,102371.56
2023-02-27T07:56:42.357Z,102381.28
2023-02-27T07:59:10.183Z,102377.06
2023-02-27T08:01:39.235Z,102372.91
2023-02-27T08:04:06.960Z,102374.66
2023-02-27T08:06:34.668Z,102370.50
2023-02-27T08:09:02.432Z,102367.00
2023-02-27T08:11:30.220Z,102363.63
2023-02-27T08:14:01.007Z,102367.81
2023-02-27T08:16:30.771Z,102371.34
2023-02-27T08:19:00.649Z,102367.16
2023-02-27T08:21:29.020Z,102366.25
2023-02-27T08:23:57.084Z,102363.47
2023-02-27T08:26:24.875Z,102366.91
2023-02-27T08:28:52.833Z,102373.81
2023-02-27T08:31:20.533Z,102382.75
2023-02-27T08:33:49.620Z,102373.19
2023-02-27T08:36:22.223Z,102381.00
2023-02-27T08:38:49.899Z,102390.63
2023-02-27T08:41:17.819Z,102395.88
2023-02-27T08:43:45.561Z,102387.06
2023-02-27T08:46:13.475Z,102393.22
2023-02-27T08:48:42.671Z,102383.53
2023-02-27T08:51:10.656Z,102390.66
2023-02-27T08:53:39.749Z,102393.38
2023-02-27T08:56:07.961Z,102386.34
2023-02-27T08:58:35.937Z,102390.75
2023-02-27T09:01:03.950Z,102396.81
2023-02-27T09:03:31.672Z,102390.75
2023-02-27T09:05:59.660Z,102404.59
2023-02-27T09:08:27.372Z,102392.44
2023-02-27T09:10:58.394Z,102387.25
2023-02-27T09:13:26.782Z,102375.09
2023-02-27T09:15:54.847Z,102389.88
2023-02-27T09:18:22.733Z,102383.78
2023-02-27T09:20:51.084Z,102384.66
2023-02-27T09:23:19.304Z,102392.47
2023-02-27T09:25:48.457Z,102381.19
2023-02-27T09:28:17.632Z,102392.47
2023-02-27T09:30:45.398Z,102389.88
2023-02-27T09:33:14.889Z,102384.66
2023-02-27T09:35:42.773Z,102385.44
2023-02-27T09:38:10.555Z,102379.38
2023-02-27T09:40:40.865Z,102388.97
2023-02-27T09:43:14.228Z,102383.78
2023-02-27T09:45:44.638Z,102382.03
2023-02-27T09:48:27.648Z,102382.06
2023-02-27T09:50:55.431Z,102372.50
2023-02-27T09:53:26.892Z,102386.38
2023-02-27T09:55:55.740Z,102382.88
2023-02-27T09:58:44.903Z,102384.53
2023-02-27T10:01:20.777Z,102387.22
2023-02-27T10:03:59.216Z,102387.28
2023-02-27T10:06:28.872Z,102381.97
2023-02-27T10:09:06.052Z,102386.41
2023-02-27T10:11:40.268Z,102383.78
2023-02-27T10:14:16.944Z,102382.88
2023-02-27T10:16:47.596Z,102372.47
2023-02-27T10:19:17.430Z,102382.91
2023-02-27T10:21:48.055Z,102389.75
2023-02-27T10:24:23.796Z,102379.19
2023-02-27T10:26:52.881Z,102388.00
2023-02-27T10:29:26.255Z,102384.28
2023-02-27T10:32:00.701Z,102372.28
2023-02-27T10:34:29.063Z,102381.75
2023-02-27T10:36:57.853Z,102376.59
2023-02-27T10:39:25.872Z,102374.91
2023-02-27T10:41:53.631Z,102384.50
2023-02-27T10:44:21.330Z,102388.69
2023-02-27T10:46:51.802Z,102376.69
2023-02-27T10:49:23.056Z,102385.28
2023-02-27T10:52:08.590Z,102384.38
2023-02-27T10:54:37.012Z,102385.09
2023-02-27T10:57:08.337Z,102379.84
2023-02-27T10:59:38.083Z,102388.44
2023-02-27T11:02:08.136Z,102386.66
2023-02-27T11:04:40.089Z,102363.41
2023-02-27T11:07:10.386Z,102376.97
2023-02-27T11:09:38.757Z,102359.78
2023-02-27T11:12:19.644Z,102358.63
2023-02-27T11:14:52.493Z,102372.38
2023-02-27T11:17:26.699Z,102368.00
2023-02-27T11:19:56.228Z,102373.25
2023-02-27T11:22:25.556Z,102367.19
2023-02-27T11:24:54.804Z,102357.13
2023-02-27T11:27:26.505Z,102372.22
2023-02-27T11:29:58.980Z,102358.94
2023-02-27T11:32:27.989Z,102360.44
2023-02-27T11:34:57.212Z,102365.91
2023-02-27T11:37:28.469Z,102369.78
2023-02-27T11:40:04.703Z,102375.84
2023-02-27T11:42:33.827Z,102370.31
2023-02-27T11:45:04.958Z,102374.47
2023-02-27T11:47:34.924Z,102368.47
2023-02-27T11:50:25.251Z,102364.25
2023-02-27T11:52:55.223Z,102367.66
2023-02-27T11:55:24.700Z,102379.59
2023-02-27T11:57:56.489Z,102370.22
2023-02-27T12:00:28.354Z,102379.53
2023-02-27T12:03:00.815Z,102378.56
2023-02-27T12:05:32.224Z,102383.53
2023-02-27T12:08:05.682Z,102371.84
2023-02-27T12:10:38.640Z,102380.28
2023-02-27T12:13:12.336Z,102367.69
2023-02-27T12:15:45.989Z,102365.53
2023-02-27T12:18:18.277Z,102365.75
2023-02-27T12:20:52.142Z,102360.34
2023-02-27T12:23:24.677Z,102371.50
2023-02-27T12:25:54.032Z,102336.28
2023-02-27T12:28:30.431Z,102355.22
2023-02-27T12:31:07.590Z,102344.88
2023-02-27T12:33:40.128Z,102344.94
2023-02-27T12:36:13.791Z,102335.94
2023-02-27T12:38:41.539Z,102346.03
2023-02-27T12:41:27.653Z,102331.66
2023-02-27T12:44:05.388Z,102338.63
2023-02-27T12:46:39.587Z,102334.94
2023-02-27T12:49:17.976Z,102326.84
2023-02-27T12:51:52.310Z,102337.19
2023-02-27T12:54:40.261Z,102329.56
2023-02-27T12:57:20.158Z,102323.53
2023-02-27T12:59:59.237Z,102316.81
2023-02-27T13:02:49.382Z,102310.38
2023-02-27T13:05:32.358Z,102321.44
2023-02-27T13:08:08.404Z,102315.28
2023-02-27T13:10:38.001Z,102317.81
2023-02-27T13:13:11.786Z,102316.97
2023-02-27T13:15:42.373Z,102316.63
2023-02-27T13:18:27.672Z,102312.22
2023-02-27T13:20:58.368Z,102303.06
2023-02-27T13:23:32.300Z,102318.13
2023-02-27T13:26:00.948Z,102315.94
2023-02-27T13:28:30.022Z,102300.28
2023-02-27T13:31:02.517Z,102309.34
2023-02-27T13:33:33.940Z,102325.00
2023-02-27T13:36:07.172Z,102306.09
2023-02-27T13:38:43.619Z,102292.78
2023-02-27T13:41:48.126Z,102310.72
2023-02-27T13:44:52.090Z,102318.09
2023-02-27T13:47:43.502Z,102312.88
2023-02-27T13:50:54.338Z,102313.06
2023-02-27T13:53:24.493Z,102301.78
2023-02-27T13:56:00.158Z,102316.28
2023-02-27T13:58:27.941Z,102304.53
2023-02-27T14:01:01.402Z,102290.34
2023-02-27T14:03:32.060Z,102319.25
2023-02-27T14:06:04.080Z,102310.31
2023-02-27T14:08:35.363Z,102302.09
2023-02-27T14:11:17.165Z,102306.44
2023-02-27T14:14:06.629Z,102302.78
2023-02-27T14:16:54.727Z,102301.03
2023-02-27T14:19:51.440Z,102299.38
2023-02-27T14:22:40.336Z,102301.19
2023-02-27T14:25:18.897Z,102303.69
2023-02-27T14:27:51.487Z,102299.28
2023-02-27T14:30:34.695Z,102288.03
2023-02-27T14:33:11.254Z,102289.72
2023-02-27T14:35:39.361Z,102288.13
2023-02-27T14:38:11.134Z,102297.41
2023-02-27T14:40:44.698Z,102288.88
2023-02-27T14:43:21.187Z,102297.16
2023-02-27T14:45:49.304Z,102300.75
2023-02-27T14:48:25.084Z,102297.19
2023-02-27T14:50:54.100Z,102282.91
2023-02-27T14:53:27.412Z,102285.72
2023-02-27T14:55:56.848Z,102297.25
2023-02-27T14:58:26.420Z,102300.28
2023-02-27T15:02:22.763Z,102295.22
2023-02-27T15:04:54.198Z,102301.91
2023-02-27T15:07:24.754Z,102295.16
2023-02-27T15:09:55.304Z,102294.97
2023-02-27T15:12:23.845Z,102301.00
2023-02-27T15:14:53.345Z,102306.31
2023-02-27T15:17:23.873Z,102319.00
2023-02-27T15:19:53.189Z,102305.38
2023-02-27T15:22:37.536Z,102300.16
2023-02-27T15:25:07.994Z,102314.59
2023-02-27T15:27:37.439Z,102306.59
2023-02-27T15:30:06.462Z,102316.00
2023-02-27T15:32:37.454Z,102301.94
2023-02-27T15:35:07.994Z,102308.09
2023-02-27T15:37:35.765Z,102302.44
2023-02-27T15:40:05.903Z,102302.72
2023-02-27T15:42:36.508Z,102308.88
2023-02-27T15:45:06.351Z,102304.53
2023-02-27T15:47:36.377Z,102294.41
2023-02-27T15:50:08.649Z,102307.38
2023-02-27T15:52:42.406Z,102314.13
2023-02-27T15:55:15.901Z,102301.50
2023-02-27T15:57:56.477Z,102309.34
2023-02-27T16:00:31.438Z,102307.06
2023-02-27T16:03:00.929Z,102307.84
2023-02-27T16:05:31.941Z,102301.81
2023-02-27T16:07:59.626Z,102303.69
2023-02-27T16:10:29.556Z,102308.22
2023-02-27T16:12:57.293Z,102309.16
2023-02-27T16:15:28.819Z,102303.09
2023-02-27T16:18:00.210Z,102302.09
2023-02-27T16:20:34.519Z,102298.75
2023-02-27T16:23:02.798Z,102299.81
2023-02-27T16:25:30.640Z,102303.75
2023-02-27T16:27:58.468Z,102291.81
2023-02-27T16:30:26.224Z,102300.56
2023-02-27T16:33:01.098Z,102297.34
2023-02-27T16:35:29.845Z,102309.53
2023-02-27T16:38:01.853Z,102299.91
2023-02-27T16:40:30.176Z,102300.84
2023-02-27T16:42:58.185Z,102305.22
2023-02-27T16:45:27.262Z,102300.97
2023-02-27T16:47:56.281Z,102304.31
2023-02-27T16:50:29.297Z,102296.75
2023-02-27T16:52:57.444Z,102297.41
2023-02-27T16:55:25.376Z,102296.00
2023-02-27T16:57:53.451Z,102299.16
2023-02-27T17:00:22.618Z,102289.16
2023-02-27T17:02:51.100Z,102292.53
2023-02-27T17:05:19.448Z,102296.09
2023-02-27T17:07:48.701Z,102293.63
2023-02-27T17:10:17.899Z,102302.25
2023-02-27T17:12:46.933Z,102310.16
2023-02-27T17:15:15.031Z,102304.91
2023-02-27T17:17:42.906Z,102306.81
2023-02-27T17:20:12.356Z,102311.09
2023-02-27T17:22:41.973Z,102312.94
2023-02-27T17:25:12.299Z,102315.63
2023-02-27T17:27:40.252Z,102320.97
2023-02-27T17:30:09.636Z,102324.31
2023-02-27T17:32:37.312Z,102334.81
2023-02-27T17:35:05.742Z,102330.50
2023-02-27T17:37:33.457Z,102335.78
2023-02-27T17:40:04.114Z,102335.78
2023-02-27T17:42:33.280Z,102338.38
2023-02-27T17:45:01.432Z,102336.63
2023-02-27T17:47:29.136Z,102338.44
2023-02-27T17:49:56.871Z,102339.22
2023-02-27T17:52:24.582Z,102341.88
2023-02-27T17:54:52.441Z,102341.91
2023-02-27T17:57:20.120Z,102352.38
2023-02-27T17:59:49.173Z,102335.84
2023-02-27T18:02:16.967Z,102348.94
2023-02-27T18:04:44.790Z,102348.94
2023-02-27T18:07:12.517Z,102354.13
2023-02-27T18:09:40.246Z,102343.69
2023-02-27T18:12:08.027Z,102351.56
2023-02-27T18:14:36.372Z,102343.72
2023-02-27T18:17:06.853Z,102352.44
2023-02-27T18:19:34.547Z,102355.91
2023-02-27T18:22:02.203Z,102355.91
2023-02-27T18:24:29.857Z,102350.72
2023-02-27T18:26:57.724Z,102349.00
2023-02-27T18:29:25.381Z,102354.22
2023-02-27T18:31:54.808Z,102355.09
2023-02-27T18:34:25.112Z,102361.16
2023-02-27T18:36:52.891Z,102362.94
2023-02-27T18:39:22.534Z,102369.00
2023-02-27T18:41:50.194Z,102369.88
2023-02-27T18:44:18.114Z,102378.56
2023-02-27T18:46:46.028Z,102383.81
2023-02-27T18:49:14.836Z,102380.31
2023-02-27T18:51:44.037Z,102374.22
2023-02-27T18:54:13.391Z,102383.78
2023-02-27T18:56:41.112Z,102388.13
2023-02-27T18:59:08.824Z,102385.50
2023-02-27T19:01:38.104Z,102389.00
2023-02-27T19:04:08.061Z,102387.25
2023-02-27T19:06:38.901Z,102382.06
2023-02-27T19:09:08.963Z,102375.09
2023-02-27T19:11:37.956Z,102383.78
2023-02-27T19:14:07.362Z,102381.19
2023-02-27T19:16:35.878Z,102381.19
2023-02-27T19:19:04.955Z,102377.72
2023-02-27T19:21:33.765Z,102377.66
2023-02-27T19:24:01.928Z,102382.06
2023-02-27T19:26:33.486Z,102375.91
2023-02-27T19:29:01.199Z,102376.75
2023-02-27T19:31:29.041Z,102385.47
2023-02-27T19:33:57.053Z,102384.56
2023-02-27T19:36:26.720Z,102385.41
2023-02-27T19:38:54.754Z,102386.22
2023-02-27T19:41:22.750Z,102388.88
2023-02-27T19:43:52.042Z,102385.41
2023-02-27T19:46:23.843Z,102390.63
2023-02-27T19:48:52.002Z,102394.97
2023-02-27T19:51:21.090Z,102397.53
2023-02-27T19:53:49.440Z,102391.34
2023-02-27T19:56:18.644Z,102395.69
2023-02-27T19:58:46.607Z,102408.78
2023-02-27T20:01:21.566Z,102402.75
2023-02-27T20:03:49.361Z,102401.94
2023-02-27T20:06:18.487Z,102401.94
2023-02-27T20:08:46.308Z,102404.53
2023-02-27T20:11:15.593Z,102397.59
2023-02-27T20:13:43.351Z,102408.91
2023-02-27T20:16:13.399Z,102401.97
2023-02-27T20:18:43.915Z,102401.94
2023-02-27T20:21:14.749Z,102391.50
2023-02-27T20:23:43.918Z,102404.53
2023-02-27T20:26:16.771Z,102408.84
2023-02-27T20:28:45.072Z,102414.91
2023-02-27T20:31:13.959Z,102415.72
2023-02-27T20:33:43.572Z,102409.63
2023-02-27T20:36:12.507Z,102413.13
2023-02-27T20:38:40.960Z,102407.91
2023-02-27T20:41:09.508Z,102402.63
2023-02-27T20:43:38.767Z,102401.00
2023-02-27T20:46:07.760Z,102402.75
2023-02-27T20:48:35.496Z,102401.00
2023-02-27T20:51:09.211Z,102390.53
2023-02-27T20:53:37.665Z,102406.97
2023-02-27T20:56:06.126Z,102403.59
2023-02-27T20:58:33.932Z,102404.44
2023-02-27T21:01:04.213Z,102410.50
2023-02-27T21:03:38.538Z,102401.00
2023-02-27T21:06:09.276Z,102404.44
2023-02-27T21:08:37.229Z,102411.41
2023-02-27T21:11:09.538Z,102414.75
2023-02-27T21:13:37.677Z,102413.03
2023-02-27T21:16:06.448Z,102416.59
2023-02-27T21:18:34.570Z,102414.88
2023-02-27T21:21:04.186Z,102413.91
2023-02-27T21:23:33.332Z,102416.53
2023-02-27T21:26:01.118Z,102423.63
2023-02-27T21:28:28.836Z,102415.78
2023-02-27T21:30:56.582Z,102427.13
2023-02-27T21:33:24.362Z,102434.13
2023-02-27T21:35:52.109Z,102424.59
2023-02-27T21:38:19.899Z,102429.84
2023-02-27T21:40:48.940Z,102421.97
2023-02-27T21:43:16.606Z,102429.78
2023-02-27T21:45:47.523Z,102430.72
2023-02-27T21:48:16.121Z,102431.59
2023-02-27T21:50:43.924Z,102429.84
2023-02-27T21:53:11.595Z,102420.22
2023-02-27T21:55:39.263Z,102426.31
2023-02-27T21:58:10.238Z,102420.22
2023-02-27T22:00:38.060Z,102423.63
2023-02-27T22:03:06.278Z,102418.47
2023-02-27T22:05:33.960Z,102425.44
2023-02-27T22:08:01.619Z,102427.25
2023-02-27T22:10:29.342Z,102420.28
2023-02-27T22:12:57.090Z,102429.00
2023-02-27T22:15:26.097Z,102421.97
2023-02-27T22:17:54.752Z,102426.38
2023-02-27T22:20:22.453Z,102428.97
2023-02-27T22:22:50.168Z,102432.47
2023-02-27T22:25:17.900Z,102430.75
2023-02-27T22:27:45.991Z,102437.69
2023-02-27T22:30:14.725Z,102439.44
2023-02-27T22:32:43.744Z,102435.94
2023-02-27T22:35:11.459Z,102437.69
2023-02-27T22:37:39.152Z,102438.53
2023-02-27T22:40:08.218Z,102436.75
2023-02-27T22:42:35.968Z,102442.88
2023-02-27T22:45:03.736Z,102439.41
2023-02-27T22:47:31.483Z,102443.75
2023-02-27T22:50:00.486Z,102436.81
2023-02-27T22:52:28.174Z,102428.91
2023-02-27T22:54:56.070Z,102442.81
2023-02-27T22:57:23.784Z,102437.63
2023-02-27T22:59:51.512Z,102442.00
2023-02-27T23:02:19.176Z,102439.41
2023-02-27T23:04:46.897Z,102435.00
2023-02-27T23:07:16.512Z,102446.38
2023-02-27T23:09:44.808Z,102442.88
2023-02-27T23:12:12.439Z,102457.69
2023-02-27T23:14:40.187Z,102455.06
2023-02-27T23:17:07.880Z,102454.19
2023-02-27T23:19:36.524Z,102456.81
2023-02-27T23:22:04.215Z,102462.88
2023-02-27T23:24:33.298Z,102456.78
2023-02-27T23:27:02.998Z,102448.09
2023-02-27T23:29:30.920Z,102467.25
2023-02-27T23:31:58.984Z,102457.69
2023-02-27T23:34:26.778Z,102458.56
2023-02-27T23:36:54.434Z,102451.59
2023-02-27T23:39:22.424Z,102447.25
2023-02-27T23:41:51.549Z,102454.19
2023-02-27T23:44:25.004Z,102455.03
2023-02-27T23:46:52.735Z,102449.84
2023-02-27T23:49:20.585Z,102453.31
2023-02-27T23:51:48.323Z,102453.31
2023-02-27T23:54:16.062Z,102452.50
2023-02-27T23:56:43.742Z,102451.59
2023-02-27T23:59:12.751Z,102452.47
